sensor_id;sensor_type;location;lat;lon;timestamp;P1;durP1;ratioP1;P2;durP2;ratioP2
18196;SDS011;9224;52.422;13.024;2024-01-15T00:00:57;189.20;;;123.90;;
18196;SDS011;9224;52.422;13.024;2024-01-15T00:03:23;190.30;;;123.03;;
18196;SDS011;9224;52.422;13.024;2024-01-15T00:05:50;187.67;;;122.47;;
18196;SDS011;9224;52.422;13.024;2024-01-15T00:08:17;187.30;;;121.40;;
18196;SDS011;9224;52.422;13.024;2024-01-15T00:10:43;187.43;;;122.03;;
18196;SDS011;9224;52.422;13.024;2024-01-15T00:13:10;187.73;;;122.67;;
18196;SDS011;9224;52.422;13.024;2024-01-15T00:15:36;189.23;;;123.33;;
18196;SDS011;9224;52.422;13.024;2024-01-15T00:18:05;188.30;;;123.17;;
18196;SDS011;9224;52.422;13.024;2024-01-15T00:20:31;188.80;;;123.50;;
18196;SDS011;9224;52.422;13.024;2024-01-15T00:22:58;191.47;;;123.07;;
18196;SDS011;9224;52.422;13.024;2024-01-15T00:25:25;188.27;;;123.67;;
18196;SDS011;9224;52.422;13.024;2024-01-15T00:27:51;187.90;;;122.30;;
18196;SDS011;9224;52.422;13.024;2024-01-15T00:30:18;188.37;;;123.13;;
18196;SDS011;9224;52.422;13.024;2024-01-15T00:32:45;187.97;;;122.53;;
18196;SDS011;9224;52.422;13.024;2024-01-15T00:35:13;190.47;;;124.37;;
18196;SDS011;9224;52.422;13.024;2024-01-15T00:37:40;188.97;;;122.87;;
18196;SDS011;9224;52.422;13.024;2024-01-15T00:40:07;195.03;;;124.03;;
18196;SDS011;9224;52.422;13.024;2024-01-15T00:42:34;188.17;;;122.70;;
18196;SDS011;9224;52.422;13.024;2024-01-15T00:45:01;188.23;;;122.83;;
18196;SDS011;9224;52.422;13.024;2024-01-15T00:47:27;188.23;;;123.20;;
18196;SDS011;9224;52.422;13.024;2024-01-15T00:49:54;186.97;;;122.23;;
18196;SDS011;9224;52.422;13.024;2024-01-15T00:52:22;190.23;;;123.13;;
18196;SDS011;9224;52.422;13.024;2024-01-15T00:54:48;186.00;;;120.20;;
18196;SDS011;9224;52.422;13.024;2024-01-15T00:57:15;186.03;;;122.33;;
18196;SDS011;9224;52.422;13.024;2024-01-15T00:59:44;186.00;;;121.43;;
18196;SDS011;9224;52.422;13.024;2024-01-15T01:02:10;187.57;;;123.20;;
18196;SDS011;9224;52.422;13.024;2024-01-15T01:04:37;184.80;;;121.57;;
18196;SDS011;9224;52.422;13.024;2024-01-15T01:07:04;186.50;;;121.43;;
18196;SDS011;9224;52.422;13.024;2024-01-15T01:09:32;188.20;;;122.27;;
18196;SDS011;9224;52.422;13.024;2024-01-15T01:11:58;188.57;;;122.90;;
18196;SDS011;9224;52.422;13.024;2024-01-15T01:14:24;189.20;;;122.40;;
18196;SDS011;9224;52.422;13.024;2024-01-15T01:16:50;190.37;;;123.20;;
18196;SDS011;9224;52.422;13.024;2024-01-15T01:19:17;186.17;;;121.73;;
18196;SDS011;9224;52.422;13.024;2024-01-15T01:21:44;185.10;;;121.47;;
18196;SDS011;9224;52.422;13.024;2024-01-15T01:24:10;188.33;;;122.53;;
18196;SDS011;9224;52.422;13.024;2024-01-15T01:26:38;187.27;;;122.43;;
18196;SDS011;9224;52.422;13.024;2024-01-15T01:29:05;187.43;;;122.80;;
18196;SDS011;9224;52.422;13.024;2024-01-15T01:31:32;188.07;;;123.13;;
18196;SDS011;9224;52.422;13.024;2024-01-15T01:33:58;187.03;;;122.80;;
18196;SDS011;9224;52.422;13.024;2024-01-15T01:36:25;191.23;;;122.33;;
18196;SDS011;9224;52.422;13.024;2024-01-15T01:38:52;188.17;;;123.43;;
18196;SDS011;9224;52.422;13.024;2024-01-15T01:41:18;185.40;;;121.83;;
18196;SDS011;9224;52.422;13.024;2024-01-15T01:43:46;187.73;;;122.57;;
18196;SDS011;9224;52.422;13.024;2024-01-15T01:46:13;189.03;;;122.83;;
18196;SDS011;9224;52.422;13.024;2024-01-15T01:48:39;186.03;;;122.17;;
18196;SDS011;9224;52.422;13.024;2024-01-15T01:51:06;187.00;;;122.53;;
18196;SDS011;9224;52.422;13.024;2024-01-15T01:53:34;188.07;;;122.50;;
18196;SDS011;9224;52.422;13.024;2024-01-15T01:56:01;187.47;;;121.43;;
18196;SDS011;9224;52.422;13.024;2024-01-15T01:58:29;188.53;;;122.50;;
18196;SDS011;9224;52.422;13.024;2024-01-15T02:00:57;188.80;;;121.37;;
18196;SDS011;9224;52.422;13.024;2024-01-15T02:03:25;186.70;;;121.87;;
18196;SDS011;9224;52.422;13.024;2024-01-15T02:05:52;185.93;;;121.57;;
18196;SDS011;9224;52.422;13.024;2024-01-15T02:08:20;188.63;;;121.37;;
18196;SDS011;9224;52.422;13.024;2024-01-15T02:10:46;189.63;;;121.80;;
18196;SDS011;9224;52.422;13.024;2024-01-15T02:13:13;186.43;;;121.57;;
18196;SDS011;9224;52.422;13.024;2024-01-15T02:15:40;187.80;;;122.23;;
18196;SDS011;9224;52.422;13.024;2024-01-15T02:18:08;185.77;;;120.93;;
18196;SDS011;9224;52.422;13.024;2024-01-15T02:20:34;189.73;;;122.17;;
18196;SDS011;9224;52.422;13.024;2024-01-15T02:23:06;185.43;;;121.27;;
18196;SDS011;9224;52.422;13.024;2024-01-15T02:25:35;186.80;;;122.13;;
18196;SDS011;9224;52.422;13.024;2024-01-15T02:28:02;185.93;;;121.83;;
18196;SDS011;9224;52.422;13.024;2024-01-15T02:30:29;186.93;;;120.93;;
18196;SDS011;9224;52.422;13.024;2024-01-15T02:32:56;189.27;;;121.93;;
18196;SDS011;9224;52.422;13.024;2024-01-15T02:35:22;187.77;;;122.53;;
18196;SDS011;9224;52.422;13.024;2024-01-15T02:37:49;187.37;;;122.20;;
18196;SDS011;9224;52.422;13.024;2024-01-15T02:40:17;184.37;;;120.17;;
18196;SDS011;9224;52.422;13.024;2024-01-15T02:42:44;190.80;;;122.37;;
18196;SDS011;9224;52.422;13.024;2024-01-15T02:45:10;188.03;;;122.23;;
18196;SDS011;9224;52.422;13.024;2024-01-15T02:47:37;186.50;;;122.00;;
18196;SDS011;9224;52.422;13.024;2024-01-15T02:50:04;187.63;;;121.73;;
18196;SDS011;9224;52.422;13.024;2024-01-15T02:52:31;185.97;;;121.10;;
18196;SDS011;9224;52.422;13.024;2024-01-15T02:54:58;186.90;;;121.03;;
18196;SDS011;9224;52.422;13.024;2024-01-15T02:57:26;187.70;;;121.47;;
18196;SDS011;9224;52.422;13.024;2024-01-15T02:59:52;188.30;;;121.00;;
18196;SDS011;9224;52.422;13.024;2024-01-15T03:02:19;183.33;;;119.37;;
18196;SDS011;9224;52.422;13.024;2024-01-15T03:04:46;182.80;;;119.97;;
18196;SDS011;9224;52.422;13.024;2024-01-15T03:07:12;183.80;;;120.20;;
18196;SDS011;9224;52.422;13.024;2024-01-15T03:09:39;189.47;;;120.07;;
18196;SDS011;9224;52.422;13.024;2024-01-15T03:12:06;183.23;;;120.23;;
18196;SDS011;9224;52.422;13.024;2024-01-15T03:14:34;181.43;;;118.80;;
18196;SDS011;9224;52.422;13.024;2024-01-15T03:17:01;184.83;;;119.23;;
18196;SDS011;9224;52.422;13.024;2024-01-15T03:19:28;183.83;;;120.57;;
18196;SDS011;9224;52.422;13.024;2024-01-15T03:21:55;184.50;;;120.23;;
18196;SDS011;9224;52.422;13.024;2024-01-15T03:24:22;180.60;;;118.87;;
18196;SDS011;9224;52.422;13.024;2024-01-15T03:26:48;179.60;;;118.67;;
18196;SDS011;9224;52.422;13.024;2024-01-15T03:29:15;182.60;;;118.93;;
18196;SDS011;9224;52.422;13.024;2024-01-15T03:31:43;186.60;;;120.27;;
18196;SDS011;9224;52.422;13.024;2024-01-15T03:34:10;182.23;;;119.17;;
18196;SDS011;9224;52.422;13.024;2024-01-15T03:36:36;183.13;;;119.23;;
18196;SDS011;9224;52.422;13.024;2024-01-15T03:39:03;182.00;;;118.93;;
18196;SDS011;9224;52.422;13.024;2024-01-15T03:41:30;180.97;;;118.10;;
18196;SDS011;9224;52.422;13.024;2024-01-15T03:43:56;184.23;;;119.07;;
18196;SDS011;9224;52.422;13.024;2024-01-15T03:46:24;181.70;;;118.03;;
18196;SDS011;9224;52.422;13.024;2024-01-15T03:48:52;180.70;;;119.53;;
18196;SDS011;9224;52.422;13.024;2024-01-15T03:51:18;180.27;;;118.73;;
18196;SDS011;9224;52.422;13.024;2024-01-15T03:53:45;179.43;;;118.20;;
18196;SDS011;9224;52.422;13.024;2024-01-15T03:56:12;179.87;;;118.63;;
18196;SDS011;9224;52.422;13.024;2024-01-15T03:58:39;180.20;;;118.13;;
18196;SDS011;9224;52.422;13.024;2024-01-15T04:01:07;180.27;;;118.00;;
18196;SDS011;9224;52.422;13.024;2024-01-15T04:03:34;181.63;;;117.77;;
18196;SDS011;9224;52.422;13.024;2024-01-15T04:06:03;178.03;;;117.80;;
18196;SDS011;9224;52.422;13.024;2024-01-15T04:08:30;180.77;;;117.77;;
18196;SDS011;9224;52.422;13.024;2024-01-15T04:10:56;180.43;;;117.37;;
18196;SDS011;9224;52.422;13.024;2024-01-15T04:13:23;181.27;;;118.37;;
18196;SDS011;9224;52.422;13.024;2024-01-15T04:15:49;182.43;;;117.43;;
18196;SDS011;9224;52.422;13.024;2024-01-15T04:18:16;178.27;;;116.70;;
18196;SDS011;9224;52.422;13.024;2024-01-15T04:20:43;180.77;;;116.97;;
18196;SDS011;9224;52.422;13.024;2024-01-15T04:23:11;180.00;;;117.43;;
18196;SDS011;9224;52.422;13.024;2024-01-15T04:25:38;178.30;;;116.97;;
18196;SDS011;9224;52.422;13.024;2024-01-15T04:28:07;179.13;;;117.30;;
18196;SDS011;9224;52.422;13.024;2024-01-15T04:30:34;182.67;;;117.33;;
18196;SDS011;9224;52.422;13.024;2024-01-15T04:33:00;179.60;;;116.73;;
18196;SDS011;9224;52.422;13.024;2024-01-15T04:35:27;179.60;;;116.83;;
18196;SDS011;9224;52.422;13.024;2024-01-15T04:37:54;175.53;;;115.43;;
18196;SDS011;9224;52.422;13.024;2024-01-15T04:40:22;178.90;;;116.37;;
18196;SDS011;9224;52.422;13.024;2024-01-15T04:42:48;180.43;;;117.00;;
18196;SDS011;9224;52.422;13.024;2024-01-15T04:45:15;182.00;;;117.30;;
18196;SDS011;9224;52.422;13.024;2024-01-15T04:47:43;176.30;;;117.20;;
18196;SDS011;9224;52.422;13.024;2024-01-15T04:50:10;179.53;;;116.03;;
18196;SDS011;9224;52.422;13.024;2024-01-15T04:52:36;181.03;;;118.70;;
18196;SDS011;9224;52.422;13.024;2024-01-15T04:55:03;179.73;;;116.50;;
18196;SDS011;9224;52.422;13.024;2024-01-15T04:57:31;186.10;;;117.17;;
18196;SDS011;9224;52.422;13.024;2024-01-15T04:59:58;178.83;;;116.53;;
18196;SDS011;9224;52.422;13.024;2024-01-15T05:02:25;177.30;;;115.57;;
18196;SDS011;9224;52.422;13.024;2024-01-15T05:04:51;180.93;;;117.23;;
18196;SDS011;9224;52.422;13.024;2024-01-15T05:07:18;180.30;;;115.90;;
18196;SDS011;9224;52.422;13.024;2024-01-15T05:09:45;178.03;;;117.40;;
18196;SDS011;9224;52.422;13.024;2024-01-15T05:12:11;184.20;;;116.13;;
18196;SDS011;9224;52.422;13.024;2024-01-15T05:14:39;179.07;;;116.80;;
18196;SDS011;9224;52.422;13.024;2024-01-15T05:17:06;175.33;;;116.27;;
18196;SDS011;9224;52.422;13.024;2024-01-15T05:19:33;175.43;;;115.57;;
18196;SDS011;9224;52.422;13.024;2024-01-15T05:21:59;177.70;;;116.77;;
18196;SDS011;9224;52.422;13.024;2024-01-15T05:24:26;181.23;;;115.90;;
18196;SDS011;9224;52.422;13.024;2024-01-15T05:26:52;181.63;;;115.90;;
18196;SDS011;9224;52.422;13.024;2024-01-15T05:29:19;177.00;;;116.33;;
18196;SDS011;9224;52.422;13.024;2024-01-15T05:31:47;179.63;;;117.27;;
18196;SDS011;9224;52.422;13.024;2024-01-15T05:34:17;183.03;;;117.17;;
18196;SDS011;9224;52.422;13.024;2024-01-15T05:36:44;178.87;;;116.57;;
18196;SDS011;9224;52.422;13.024;2024-01-15T05:39:12;179.87;;;116.17;;
18196;SDS011;9224;52.422;13.024;2024-01-15T05:41:39;181.90;;;116.40;;
18196;SDS011;9224;52.422;13.024;2024-01-15T05:44:06;178.43;;;117.33;;
18196;SDS011;9224;52.422;13.024;2024-01-15T05:46:32;181.07;;;117.20;;
18196;SDS011;9224;52.422;13.024;2024-01-15T05:49:00;180.53;;;116.17;;
18196;SDS011;9224;52.422;13.024;2024-01-15T05:51:29;177.97;;;115.60;;
18196;SDS011;9224;52.422;13.024;2024-01-15T05:53:56;178.00;;;115.37;;
18196;SDS011;9224;52.422;13.024;2024-01-15T05:56:22;176.43;;;115.07;;
18196;SDS011;9224;52.422;13.024;2024-01-15T05:58:50;179.33;;;115.83;;
18196;SDS011;9224;52.422;13.024;2024-01-15T06:01:17;179.63;;;116.10;;
18196;SDS011;9224;52.422;13.024;2024-01-15T06:03:44;180.67;;;115.00;;
18196;SDS011;9224;52.422;13.024;2024-01-15T06:06:12;179.13;;;115.63;;
18196;SDS011;9224;52.422;13.024;2024-01-15T06:08:39;178.00;;;114.97;;
18196;SDS011;9224;52.422;13.024;2024-01-15T06:11:06;181.40;;;117.57;;
18196;SDS011;9224;52.422;13.024;2024-01-15T06:13:32;184.20;;;115.67;;
18196;SDS011;9224;52.422;13.024;2024-01-15T06:15:59;179.97;;;115.37;;
18196;SDS011;9224;52.422;13.024;2024-01-15T06:18:26;181.97;;;115.30;;
18196;SDS011;9224;52.422;13.024;2024-01-15T06:20:51;182.77;;;114.13;;
18196;SDS011;9224;52.422;13.024;2024-01-15T06:23:19;176.73;;;115.00;;
18196;SDS011;9224;52.422;13.024;2024-01-15T06:25:46;180.93;;;115.03;;
18196;SDS011;9224;52.422;13.024;2024-01-15T06:28:12;177.10;;;115.13;;
18196;SDS011;9224;52.422;13.024;2024-01-15T06:30:39;173.60;;;114.07;;
18196;SDS011;9224;52.422;13.024;2024-01-15T06:33:05;175.73;;;115.30;;
18196;SDS011;9224;52.422;13.024;2024-01-15T06:35:32;176.03;;;115.00;;
18196;SDS011;9224;52.422;13.024;2024-01-15T06:38:00;182.03;;;115.47;;
18196;SDS011;9224;52.422;13.024;2024-01-15T06:40:28;185.67;;;116.10;;
18196;SDS011;9224;52.422;13.024;2024-01-15T06:42:54;179.97;;;114.50;;
18196;SDS011;9224;52.422;13.024;2024-01-15T06:45:21;178.97;;;115.83;;
18196;SDS011;9224;52.422;13.024;2024-01-15T06:47:47;178.17;;;115.30;;
18196;SDS011;9224;52.422;13.024;2024-01-15T06:50:14;175.23;;;114.00;;
18196;SDS011;9224;52.422;13.024;2024-01-15T06:52:41;179.43;;;114.97;;
18196;SDS011;9224;52.422;13.024;2024-01-15T06:55:07;176.93;;;114.67;;
18196;SDS011;9224;52.422;13.024;2024-01-15T06:57:35;176.97;;;115.30;;
18196;SDS011;9224;52.422;13.024;2024-01-15T07:00:02;175.43;;;114.73;;
18196;SDS011;9224;52.422;13.024;2024-01-15T07:02:32;178.00;;;114.50;;
18196;SDS011;9224;52.422;13.024;2024-01-15T07:04:59;177.03;;;114.93;;
18196;SDS011;9224;52.422;13.024;2024-01-15T07:07:27;184.23;;;115.47;;
18196;SDS011;9224;52.422;13.024;2024-01-15T07:09:55;175.70;;;114.60;;
18196;SDS011;9224;52.422;13.024;2024-01-15T07:12:21;180.03;;;116.00;;
18196;SDS011;9224;52.422;13.024;2024-01-15T07:14:49;178.13;;;113.70;;
18196;SDS011;9224;52.422;13.024;2024-01-15T07:17:16;182.63;;;116.57;;
18196;SDS011;9224;52.422;13.024;2024-01-15T07:19:42;182.13;;;115.97;;
18196;SDS011;9224;52.422;13.024;2024-01-15T07:22:09;179.03;;;115.77;;
18196;SDS011;9224;52.422;13.024;2024-01-15T07:24:36;176.00;;;114.53;;
18196;SDS011;9224;52.422;13.024;2024-01-15T07:27:03;176.97;;;116.03;;
18196;SDS011;9224;52.422;13.024;2024-01-15T07:29:30;180.33;;;114.43;;
18196;SDS011;9224;52.422;13.024;2024-01-15T07:31:59;177.17;;;114.97;;
18196;SDS011;9224;52.422;13.024;2024-01-15T07:34:26;176.93;;;114.83;;
18196;SDS011;9224;52.422;13.024;2024-01-15T07:36:53;176.93;;;115.27;;
18196;SDS011;9224;52.422;13.024;2024-01-15T07:39:19;179.63;;;115.10;;
18196;SDS011;9224;52.422;13.024;2024-01-15T07:41:47;184.37;;;116.10;;
18196;SDS011;9224;52.422;13.024;2024-01-15T07:44:14;183.13;;;114.83;;
18196;SDS011;9224;52.422;13.024;2024-01-15T07:46:43;180.43;;;115.53;;
18196;SDS011;9224;52.422;13.024;2024-01-15T07:49:11;177.57;;;114.70;;
18196;SDS011;9224;52.422;13.024;2024-01-15T07:51:38;183.20;;;114.33;;
18196;SDS011;9224;52.422;13.024;2024-01-15T07:54:06;175.97;;;114.80;;
18196;SDS011;9224;52.422;13.024;2024-01-15T07:56:33;176.50;;;114.53;;
18196;SDS011;9224;52.422;13.024;2024-01-15T07:58:59;176.30;;;114.07;;
18196;SDS011;9224;52.422;13.024;2024-01-15T08:01:26;178.73;;;114.83;;
18196;SDS011;9224;52.422;13.024;2024-01-15T08:03:52;176.87;;;115.83;;
18196;SDS011;9224;52.422;13.024;2024-01-15T08:06:21;178.27;;;115.03;;
18196;SDS011;9224;52.422;13.024;2024-01-15T08:08:48;173.00;;;115.07;;
18196;SDS011;9224;52.422;13.024;2024-01-15T08:11:15;176.47;;;115.03;;
18196;SDS011;9224;52.422;13.024;2024-01-15T08:13:41;177.83;;;115.13;;
18196;SDS011;9224;52.422;13.024;2024-01-15T08:16:08;178.43;;;115.33;;
18196;SDS011;9224;52.422;13.024;2024-01-15T08:18:34;176.83;;;114.77;;
18196;SDS011;9224;52.422;13.024;2024-01-15T08:21:01;181.20;;;117.37;;
18196;SDS011;9224;52.422;13.024;2024-01-15T08:23:29;178.43;;;115.47;;
18196;SDS011;9224;52.422;13.024;2024-01-15T08:25:56;185.87;;;116.37;;
18196;SDS011;9224;52.422;13.024;2024-01-15T08:28:23;181.73;;;115.67;;
18196;SDS011;9224;52.422;13.024;2024-01-15T08:30:49;176.10;;;114.90;;
18196;SDS011;9224;52.422;13.024;2024-01-15T08:33:16;175.37;;;114.47;;
18196;SDS011;9224;52.422;13.024;2024-01-15T08:35:43;187.13;;;116.77;;
18196;SDS011;9224;52.422;13.024;2024-01-15T08:38:09;180.10;;;115.47;;
18196;SDS011;9224;52.422;13.024;2024-01-15T08:40:37;172.73;;;113.20;;
18196;SDS011;9224;52.422;13.024;2024-01-15T08:43:04;174.43;;;113.40;;
18196;SDS011;9224;52.422;13.024;2024-01-15T08:45:31;177.60;;;113.87;;
18196;SDS011;9224;52.422;13.024;2024-01-15T08:47:58;176.40;;;114.77;;
18196;SDS011;9224;52.422;13.024;2024-01-15T08:50:26;181.47;;;114.83;;
18196;SDS011;9224;52.422;13.024;2024-01-15T08:52:52;179.63;;;115.87;;
18196;SDS011;9224;52.422;13.024;2024-01-15T08:55:19;180.00;;;116.40;;
18196;SDS011;9224;52.422;13.024;2024-01-15T08:57:48;177.40;;;115.50;;
18196;SDS011;9224;52.422;13.024;2024-01-15T09:00:15;181.73;;;116.27;;
18196;SDS011;9224;52.422;13.024;2024-01-15T09:02:43;176.87;;;115.13;;
18196;SDS011;9224;52.422;13.024;2024-01-15T09:05:10;176.23;;;114.70;;
18196;SDS011;9224;52.422;13.024;2024-01-15T09:07:37;176.90;;;115.07;;
18196;SDS011;9224;52.422;13.024;2024-01-15T09:10:04;174.87;;;114.67;;
18196;SDS011;9224;52.422;13.024;2024-01-15T09:12:31;175.60;;;113.80;;
18196;SDS011;9224;52.422;13.024;2024-01-15T09:14:59;175.07;;;115.50;;
18196;SDS011;9224;52.422;13.024;2024-01-15T09:17:29;173.87;;;114.60;;
18196;SDS011;9224;52.422;13.024;2024-01-15T09:19:55;177.20;;;116.33;;
18196;SDS011;9224;52.422;13.024;2024-01-15T09:22:22;176.43;;;114.40;;
18196;SDS011;9224;52.422;13.024;2024-01-15T09:24:49;174.53;;;114.27;;
18196;SDS011;9224;52.422;13.024;2024-01-15T09:27:15;172.83;;;114.10;;
18196;SDS011;9224;52.422;13.024;2024-01-15T09:29:42;175.83;;;114.70;;
18196;SDS011;9224;52.422;13.024;2024-01-15T09:32:12;180.50;;;116.23;;
18196;SDS011;9224;52.422;13.024;2024-01-15T09:34:38;171.97;;;114.27;;
18196;SDS011;9224;52.422;13.024;2024-01-15T09:37:05;173.90;;;114.13;;
18196;SDS011;9224;52.422;13.024;2024-01-15T09:39:32;171.73;;;113.47;;
18196;SDS011;9224;52.422;13.024;2024-01-15T09:41:58;174.93;;;115.10;;
18196;SDS011;9224;52.422;13.024;2024-01-15T09:44:25;177.47;;;115.20;;
18196;SDS011;9224;52.422;13.024;2024-01-15T09:46:53;174.90;;;114.80;;
18196;SDS011;9224;52.422;13.024;2024-01-15T09:49:22;176.37;;;115.33;;
18196;SDS011;9224;52.422;13.024;2024-01-15T09:51:49;177.57;;;115.53;;
18196;SDS011;9224;52.422;13.024;2024-01-15T09:54:16;173.70;;;114.87;;
18196;SDS011;9224;52.422;13.024;2024-01-15T09:56:44;173.97;;;115.30;;
18196;SDS011;9224;52.422;13.024;2024-01-15T09:59:12;175.20;;;115.53;;
18196;SDS011;9224;52.422;13.024;2024-01-15T10:01:40;177.17;;;115.17;;
18196;SDS011;9224;52.422;13.024;2024-01-15T10:04:07;173.43;;;114.27;;
18196;SDS011;9224;52.422;13.024;2024-01-15T10:06:35;175.93;;;115.87;;
18196;SDS011;9224;52.422;13.024;2024-01-15T10:09:03;177.63;;;115.90;;
18196;SDS011;9224;52.422;13.024;2024-01-15T10:11:29;173.67;;;114.17;;
18196;SDS011;9224;52.422;13.024;2024-01-15T10:13:56;173.60;;;114.60;;
18196;SDS011;9224;52.422;13.024;2024-01-15T10:16:23;174.83;;;114.97;;
18196;SDS011;9224;52.422;13.024;2024-01-15T10:18:50;177.30;;;115.80;;
18196;SDS011;9224;52.422;13.024;2024-01-15T10:21:17;174.53;;;114.70;;
18196;SDS011;9224;52.422;13.024;2024-01-15T10:23:45;173.37;;;114.57;;
18196;SDS011;9224;52.422;13.024;2024-01-15T10:26:12;174.63;;;114.30;;
18196;SDS011;9224;52.422;13.024;2024-01-15T10:28:38;174.03;;;115.57;;
18196;SDS011;9224;52.422;13.024;2024-01-15T10:31:06;177.00;;;114.43;;
18196;SDS011;9224;52.422;13.024;2024-01-15T10:33:32;175.70;;;115.50;;
18196;SDS011;9224;52.422;13.024;2024-01-15T10:35:59;171.43;;;114.47;;
18196;SDS011;9224;52.422;13.024;2024-01-15T10:38:27;172.23;;;114.40;;
18196;SDS011;9224;52.422;13.024;2024-01-15T10:40:55;173.97;;;114.93;;
18196;SDS011;9224;52.422;13.024;2024-01-15T10:43:23;177.47;;;115.30;;
18196;SDS011;9224;52.422;13.024;2024-01-15T10:45:50;178.23;;;114.93;;
18196;SDS011;9224;52.422;13.024;2024-01-15T10:48:17;173.63;;;113.63;;
18196;SDS011;9224;52.422;13.024;2024-01-15T10:50:45;170.37;;;114.07;;
18196;SDS011;9224;52.422;13.024;2024-01-15T10:53:13;173.20;;;113.77;;
18196;SDS011;9224;52.422;13.024;2024-01-15T10:55:41;177.57;;;115.23;;
18196;SDS011;9224;52.422;13.024;2024-01-15T10:58:09;171.93;;;114.10;;
18196;SDS011;9224;52.422;13.024;2024-01-15T11:00:36;173.20;;;114.23;;
18196;SDS011;9224;52.422;13.024;2024-01-15T11:03:04;174.30;;;114.83;;
18196;SDS011;9224;52.422;13.024;2024-01-15T11:05:32;170.57;;;114.63;;
18196;SDS011;9224;52.422;13.024;2024-01-15T11:07:58;175.17;;;115.07;;
18196;SDS011;9224;52.422;13.024;2024-01-15T11:10:38;171.53;;;113.77;;
18196;SDS011;9224;52.422;13.024;2024-01-15T11:13:07;166.50;;;112.27;;
18196;SDS011;9224;52.422;13.024;2024-01-15T11:18:21;168.63;;;114.07;;
18196;SDS011;9224;52.422;13.024;2024-01-15T11:24:00;174.00;;;114.60;;
18196;SDS011;9224;52.422;13.024;2024-01-15T11:26:28;173.27;;;114.93;;
18196;SDS011;9224;52.422;13.024;2024-01-15T11:28:58;170.90;;;114.53;;
18196;SDS011;9224;52.422;13.024;2024-01-15T11:31:26;169.17;;;114.13;;
18196;SDS011;9224;52.422;13.024;2024-01-15T11:33:54;173.07;;;114.47;;
18196;SDS011;9224;52.422;13.024;2024-01-15T11:36:20;177.60;;;115.50;;
18196;SDS011;9224;52.422;13.024;2024-01-15T11:38:47;175.27;;;115.67;;
18196;SDS011;9224;52.422;13.024;2024-01-15T11:41:14;169.73;;;114.80;;
18196;SDS011;9224;52.422;13.024;2024-01-15T11:43:41;171.23;;;114.27;;
18196;SDS011;9224;52.422;13.024;2024-01-15T11:46:10;169.83;;;114.10;;
18196;SDS011;9224;52.422;13.024;2024-01-15T11:48:42;172.97;;;114.30;;
18196;SDS011;9224;52.422;13.024;2024-01-15T11:51:10;169.93;;;113.53;;
18196;SDS011;9224;52.422;13.024;2024-01-15T11:53:45;171.77;;;114.17;;
18196;SDS011;9224;52.422;13.024;2024-01-15T11:56:15;169.43;;;113.80;;
18196;SDS011;9224;52.422;13.024;2024-01-15T11:58:42;170.03;;;114.10;;
18196;SDS011;9224;52.422;13.024;2024-01-15T12:01:11;171.13;;;113.73;;
18196;SDS011;9224;52.422;13.024;2024-01-15T12:03:38;169.33;;;114.07;;
18196;SDS011;9224;52.422;13.024;2024-01-15T12:06:05;168.77;;;113.47;;
18196;SDS011;9224;52.422;13.024;2024-01-15T12:08:32;169.37;;;113.70;;
18196;SDS011;9224;52.422;13.024;2024-01-15T12:11:02;169.43;;;113.67;;
18196;SDS011;9224;52.422;13.024;2024-01-15T12:13:32;167.97;;;113.10;;
18196;SDS011;9224;52.422;13.024;2024-01-15T12:15:59;173.07;;;114.33;;
18196;SDS011;9224;52.422;13.024;2024-01-15T12:18:29;170.83;;;113.30;;
18196;SDS011;9224;52.422;13.024;2024-01-15T12:20:56;168.27;;;113.50;;
18196;SDS011;9224;52.422;13.024;2024-01-15T12:23:23;169.53;;;113.23;;
18196;SDS011;9224;52.422;13.024;2024-01-15T12:25:50;168.97;;;114.10;;
18196;SDS011;9224;52.422;13.024;2024-01-15T12:28:17;170.90;;;113.97;;
18196;SDS011;9224;52.422;13.024;2024-01-15T12:30:46;168.50;;;113.47;;
18196;SDS011;9224;52.422;13.024;2024-01-15T12:33:14;167.67;;;113.10;;
18196;SDS011;9224;52.422;13.024;2024-01-15T12:35:42;175.30;;;114.57;;
18196;SDS011;9224;52.422;13.024;2024-01-15T12:38:10;167.63;;;113.40;;
18196;SDS011;9224;52.422;13.024;2024-01-15T12:40:37;165.67;;;111.90;;
18196;SDS011;9224;52.422;13.024;2024-01-15T12:45:55;169.57;;;113.60;;
18196;SDS011;9224;52.422;13.024;2024-01-15T12:48:23;167.40;;;112.87;;
18196;SDS011;9224;52.422;13.024;2024-01-15T12:50:51;166.70;;;112.30;;
18196;SDS011;9224;52.422;13.024;2024-01-15T12:53:18;166.53;;;113.03;;
18196;SDS011;9224;52.422;13.024;2024-01-15T12:55:45;169.47;;;113.17;;
18196;SDS011;9224;52.422;13.024;2024-01-15T12:58:12;166.73;;;112.97;;
18196;SDS011;9224;52.422;13.024;2024-01-15T13:00:38;169.83;;;113.20;;
18196;SDS011;9224;52.422;13.024;2024-01-15T13:03:06;168.70;;;113.20;;
18196;SDS011;9224;52.422;13.024;2024-01-15T13:05:33;170.67;;;114.53;;
18196;SDS011;9224;52.422;13.024;2024-01-15T13:08:03;181.47;;;115.53;;
18196;SDS011;9224;52.422;13.024;2024-01-15T13:10:30;174.97;;;115.80;;
18196;SDS011;9224;52.422;13.024;2024-01-15T13:12:56;174.17;;;114.87;;
18196;SDS011;9224;52.422;13.024;2024-01-15T13:15:23;171.70;;;114.60;;
18196;SDS011;9224;52.422;13.024;2024-01-15T13:17:50;171.93;;;114.67;;
18196;SDS011;9224;52.422;13.024;2024-01-15T13:20:16;172.00;;;114.93;;
18196;SDS011;9224;52.422;13.024;2024-01-15T13:22:43;175.03;;;116.40;;
18196;SDS011;9224;52.422;13.024;2024-01-15T13:25:12;172.93;;;115.03;;
18196;SDS011;9224;52.422;13.024;2024-01-15T13:27:38;174.70;;;114.77;;
18196;SDS011;9224;52.422;13.024;2024-01-15T13:30:06;174.63;;;113.37;;
18196;SDS011;9224;52.422;13.024;2024-01-15T13:32:33;170.90;;;114.03;;
18196;SDS011;9224;52.422;13.024;2024-01-15T13:35:00;171.90;;;115.00;;
18196;SDS011;9224;52.422;13.024;2024-01-15T13:37:27;172.10;;;114.80;;
18196;SDS011;9224;52.422;13.024;2024-01-15T13:39:54;176.13;;;115.47;;
18196;SDS011;9224;52.422;13.024;2024-01-15T13:42:22;173.13;;;115.27;;
18196;SDS011;9224;52.422;13.024;2024-01-15T13:44:49;174.73;;;118.47;;
18196;SDS011;9224;52.422;13.024;2024-01-15T13:47:16;175.80;;;114.63;;
18196;SDS011;9224;52.422;13.024;2024-01-15T13:49:43;171.17;;;113.73;;
18196;SDS011;9224;52.422;13.024;2024-01-15T13:52:10;174.60;;;115.47;;
18196;SDS011;9224;52.422;13.024;2024-01-15T13:54:37;172.97;;;115.27;;
18196;SDS011;9224;52.422;13.024;2024-01-15T13:57:04;170.77;;;114.47;;
18196;SDS011;9224;52.422;13.024;2024-01-15T13:59:32;175.93;;;116.27;;
18196;SDS011;9224;52.422;13.024;2024-01-15T14:01:59;171.97;;;114.50;;
18196;SDS011;9224;52.422;13.024;2024-01-15T14:04:25;174.83;;;115.40;;